sensor_id;sensor_type;location;lat;lon;timestamp;P1;durP1;ratioP1;P2;durP2;ratioP2
10416;SDS011;62605;49.432;8.680;2024-03-02T00:00:53;7.60;;;2.87;;
10416;SDS011;62605;49.432;8.680;2024-03-02T00:03:19;7.20;;;3.83;;
10416;SDS011;62605;49.432;8.680;2024-03-02T00:05:49;4.57;;;3.47;;
10416;SDS011;62605;49.432;8.680;2024-03-02T00:08:24;7.67;;;4.10;;
10416;SDS011;62605;49.432;8.680;2024-03-02T00:10:53;6.00;;;3.87;;
10416;SDS011;62605;49.432;8.680;2024-03-02T00:13:26;10.00;;;4.07;;
10416;SDS011;62605;49.432;8.680;2024-03-02T00:15:54;6.77;;;4.73;;
10416;SDS011;62605;49.432;8.680;2024-03-02T00:18:25;8.93;;;5.13;;
10416;SDS011;62605;49.432;8.680;2024-03-02T00:20:54;9.60;;;4.80;;
10416;SDS011;62605;49.432;8.680;2024-03-02T00:23:22;8.23;;;4.90;;
10416;SDS011;62605;49.432;8.680;2024-03-02T00:25:51;4.83;;;3.83;;
10416;SDS011;62605;49.432;8.680;2024-03-02T00:28:20;7.80;;;4.60;;
10416;SDS011;62605;49.432;8.680;2024-03-02T00:30:54;8.00;;;4.57;;
10416;SDS011;62605;49.432;8.680;2024-03-02T00:33:23;7.07;;;3.90;;
10416;SDS011;62605;49.432;8.680;2024-03-02T00:35:52;6.63;;;3.90;;
10416;SDS011;62605;49.432;8.680;2024-03-02T00:38:20;8.37;;;4.03;;
10416;SDS011;62605;49.432;8.680;2024-03-02T00:40:47;7.83;;;4.13;;
10416;SDS011;62605;49.432;8.680;2024-03-02T00:43:36;6.97;;;4.10;;
10416;SDS011;62605;49.432;8.680;2024-03-02T00:46:09;8.40;;;4.60;;
10416;SDS011;62605;49.432;8.680;2024-03-02T00:48:47;6.27;;;4.00;;
10416;SDS011;62605;49.432;8.680;2024-03-02T00:51:19;6.80;;;3.97;;
10416;SDS011;62605;49.432;8.680;2024-03-02T00:53:46;7.23;;;4.60;;
10416;SDS011;62605;49.432;8.680;2024-03-02T00:56:14;11.97;;;5.13;;
10416;SDS011;62605;49.432;8.680;2024-03-02T00:58:41;7.60;;;4.47;;
10416;SDS011;62605;49.432;8.680;2024-03-02T01:01:10;11.40;;;5.30;;
10416;SDS011;62605;49.432;8.680;2024-03-02T01:03:38;7.27;;;4.57;;
10416;SDS011;62605;49.432;8.680;2024-03-02T01:06:06;8.50;;;4.23;;
10416;SDS011;62605;49.432;8.680;2024-03-02T01:08:34;7.67;;;3.90;;
10416;SDS011;62605;49.432;8.680;2024-03-02T01:11:01;5.80;;;3.87;;
10416;SDS011;62605;49.432;8.680;2024-03-02T01:13:28;5.77;;;3.63;;
10416;SDS011;62605;49.432;8.680;2024-03-02T01:15:56;6.80;;;4.17;;
10416;SDS011;62605;49.432;8.680;2024-03-02T01:18:25;9.77;;;4.47;;
10416;SDS011;62605;49.432;8.680;2024-03-02T01:20:52;6.43;;;3.83;;
10416;SDS011;62605;49.432;8.680;2024-03-02T01:23:21;5.73;;;4.10;;
10416;SDS011;62605;49.432;8.680;2024-03-02T01:25:48;6.37;;;3.97;;
10416;SDS011;62605;49.432;8.680;2024-03-02T01:28:15;7.20;;;4.27;;
10416;SDS011;62605;49.432;8.680;2024-03-02T01:30:42;7.23;;;4.10;;
10416;SDS011;62605;49.432;8.680;2024-03-02T01:33:09;6.17;;;4.17;;
10416;SDS011;62605;49.432;8.680;2024-03-02T01:35:38;4.37;;;3.53;;
10416;SDS011;62605;49.432;8.680;2024-03-02T01:38:05;5.00;;;3.43;;
10416;SDS011;62605;49.432;8.680;2024-03-02T01:40:32;5.87;;;3.80;;
10416;SDS011;62605;49.432;8.680;2024-03-02T01:43:00;6.93;;;4.20;;
10416;SDS011;62605;49.432;8.680;2024-03-02T01:45:28;6.73;;;4.27;;
10416;SDS011;62605;49.432;8.680;2024-03-02T01:47:55;6.13;;;3.70;;
10416;SDS011;62605;49.432;8.680;2024-03-02T01:50:26;6.10;;;3.67;;
10416;SDS011;62605;49.432;8.680;2024-03-02T01:52:55;5.13;;;3.50;;
10416;SDS011;62605;49.432;8.680;2024-03-02T01:55:22;4.90;;;3.90;;
10416;SDS011;62605;49.432;8.680;2024-03-02T01:57:50;4.40;;;3.43;;
10416;SDS011;62605;49.432;8.680;2024-03-02T02:00:19;7.77;;;3.70;;
10416;SDS011;62605;49.432;8.680;2024-03-02T02:02:47;5.43;;;3.70;;
10416;SDS011;62605;49.432;8.680;2024-03-02T02:05:15;5.70;;;4.00;;
10416;SDS011;62605;49.432;8.680;2024-03-02T02:07:42;6.40;;;4.43;;
10416;SDS011;62605;49.432;8.680;2024-03-02T02:10:11;9.90;;;3.60;;
10416;SDS011;62605;49.432;8.680;2024-03-02T02:12:38;5.53;;;3.57;;
10416;SDS011;62605;49.432;8.680;2024-03-02T02:17:52;9.73;;;3.87;;
10416;SDS011;62605;49.432;8.680;2024-03-02T02:23:42;5.00;;;3.43;;
10416;SDS011;62605;49.432;8.680;2024-03-02T02:26:13;5.73;;;3.57;;
10416;SDS011;62605;49.432;8.680;2024-03-02T02:28:40;7.30;;;4.13;;
10416;SDS011;62605;49.432;8.680;2024-03-02T02:31:12;5.17;;;3.57;;
10416;SDS011;62605;49.432;8.680;2024-03-02T02:33:39;5.73;;;3.57;;
10416;SDS011;62605;49.432;8.680;2024-03-02T02:36:06;8.80;;;4.73;;
10416;SDS011;62605;49.432;8.680;2024-03-02T02:38:36;5.70;;;3.20;;
10416;SDS011;62605;49.432;8.680;2024-03-02T02:41:06;5.23;;;3.60;;
10416;SDS011;62605;49.432;8.680;2024-03-02T02:43:34;5.67;;;3.93;;
10416;SDS011;62605;49.432;8.680;2024-03-02T02:46:01;6.60;;;4.17;;
10416;SDS011;62605;49.432;8.680;2024-03-02T02:48:28;12.73;;;4.77;;
10416;SDS011;62605;49.432;8.680;2024-03-02T02:50:55;6.63;;;3.90;;
10416;SDS011;62605;49.432;8.680;2024-03-02T02:53:23;5.73;;;3.53;;
10416;SDS011;62605;49.432;8.680;2024-03-02T02:55:50;6.00;;;3.57;;
10416;SDS011;62605;49.432;8.680;2024-03-02T02:58:18;7.53;;;4.47;;
10416;SDS011;62605;49.432;8.680;2024-03-02T03:00:46;4.27;;;3.20;;
10416;SDS011;62605;49.432;8.680;2024-03-02T03:03:13;9.03;;;4.50;;
10416;SDS011;62605;49.432;8.680;2024-03-02T03:05:40;4.90;;;3.53;;
10416;SDS011;62605;49.432;8.680;2024-03-02T03:08:07;7.27;;;3.93;;
10416;SDS011;62605;49.432;8.680;2024-03-02T03:10:35;7.20;;;3.90;;
10416;SDS011;62605;49.432;8.680;2024-03-02T03:13:02;4.47;;;3.17;;
10416;SDS011;62605;49.432;8.680;2024-03-02T03:15:31;8.47;;;4.60;;
10416;SDS011;62605;49.432;8.680;2024-03-02T03:17:58;6.60;;;3.90;;
10416;SDS011;62605;49.432;8.680;2024-03-02T03:20:25;7.80;;;3.87;;
10416;SDS011;62605;49.432;8.680;2024-03-02T03:22:52;6.80;;;4.07;;
10416;SDS011;62605;49.432;8.680;2024-03-02T03:25:19;3.73;;;3.13;;
10416;SDS011;62605;49.432;8.680;2024-03-02T03:27:47;6.67;;;3.60;;
10416;SDS011;62605;49.432;8.680;2024-03-02T03:30:14;6.93;;;3.43;;
10416;SDS011;62605;49.432;8.680;2024-03-02T03:32:43;5.97;;;3.93;;
10416;SDS011;62605;49.432;8.680;2024-03-02T03:35:10;4.63;;;3.27;;
10416;SDS011;62605;49.432;8.680;2024-03-02T03:37:38;8.10;;;4.20;;
10416;SDS011;62605;49.432;8.680;2024-03-02T03:40:05;4.73;;;3.23;;
10416;SDS011;62605;49.432;8.680;2024-03-02T03:42:35;6.53;;;4.03;;
10416;SDS011;62605;49.432;8.680;2024-03-02T03:45:02;8.10;;;4.17;;
10416;SDS011;62605;49.432;8.680;2024-03-02T03:47:31;7.47;;;4.67;;
10416;SDS011;62605;49.432;8.680;2024-03-02T03:49:59;7.23;;;4.30;;
10416;SDS011;62605;49.432;8.680;2024-03-02T03:52:29;6.37;;;4.27;;
10416;SDS011;62605;49.432;8.680;2024-03-02T03:54:56;10.17;;;4.53;;
10416;SDS011;62605;49.432;8.680;2024-03-02T03:57:24;8.70;;;4.73;;
10416;SDS011;62605;49.432;8.680;2024-03-02T03:59:51;6.23;;;4.50;;
10416;SDS011;62605;49.432;8.680;2024-03-02T04:02:18;7.97;;;5.03;;
10416;SDS011;62605;49.432;8.680;2024-03-02T04:04:46;8.10;;;4.50;;
10416;SDS011;62605;49.432;8.680;2024-03-02T04:07:14;6.30;;;3.77;;
10416;SDS011;62605;49.432;8.680;2024-03-02T04:09:41;6.73;;;4.30;;
10416;SDS011;62605;49.432;8.680;2024-03-02T04:12:09;6.40;;;3.70;;
10416;SDS011;62605;49.432;8.680;2024-03-02T04:14:38;5.93;;;3.97;;
10416;SDS011;62605;49.432;8.680;2024-03-02T04:17:07;6.97;;;4.13;;
10416;SDS011;62605;49.432;8.680;2024-03-02T04:19:35;5.87;;;3.80;;
10416;SDS011;62605;49.432;8.680;2024-03-02T04:22:02;5.97;;;4.33;;
10416;SDS011;62605;49.432;8.680;2024-03-02T04:24:31;6.73;;;3.67;;
10416;SDS011;62605;49.432;8.680;2024-03-02T04:26:59;6.30;;;3.97;;
10416;SDS011;62605;49.432;8.680;2024-03-02T04:29:27;6.57;;;4.30;;
10416;SDS011;62605;49.432;8.680;2024-03-02T04:31:54;6.23;;;3.90;;
10416;SDS011;62605;49.432;8.680;2024-03-02T04:34:21;9.00;;;3.90;;
10416;SDS011;62605;49.432;8.680;2024-03-02T04:36:49;5.60;;;3.67;;
10416;SDS011;62605;49.432;8.680;2024-03-02T04:39:16;6.27;;;3.47;;
10416;SDS011;62605;49.432;8.680;2024-03-02T04:41:44;4.83;;;3.73;;
10416;SDS011;62605;49.432;8.680;2024-03-02T04:44:11;5.63;;;3.57;;
10416;SDS011;62605;49.432;8.680;2024-03-02T04:46:38;5.63;;;3.30;;
10416;SDS011;62605;49.432;8.680;2024-03-02T04:49:06;5.57;;;3.50;;
10416;SDS011;62605;49.432;8.680;2024-03-02T04:51:33;6.63;;;3.73;;
10416;SDS011;62605;49.432;8.680;2024-03-02T04:54:00;7.93;;;3.57;;
10416;SDS011;62605;49.432;8.680;2024-03-02T04:56:27;7.80;;;3.97;;
10416;SDS011;62605;49.432;8.680;2024-03-02T04:59:10;4.27;;;3.10;;
10416;SDS011;62605;49.432;8.680;2024-03-02T05:01:38;7.17;;;3.97;;
10416;SDS011;62605;49.432;8.680;2024-03-02T05:04:05;5.67;;;3.30;;
10416;SDS011;62605;49.432;8.680;2024-03-02T05:06:32;6.23;;;3.00;;
10416;SDS011;62605;49.432;8.680;2024-03-02T05:08:59;5.37;;;3.60;;
10416;SDS011;62605;49.432;8.680;2024-03-02T05:11:26;4.57;;;3.43;;
10416;SDS011;62605;49.432;8.680;2024-03-02T05:14:19;7.50;;;3.30;;
10416;SDS011;62605;49.432;8.680;2024-03-02T05:16:46;5.90;;;2.90;;
10416;SDS011;62605;49.432;8.680;2024-03-02T05:19:14;8.70;;;3.87;;
10416;SDS011;62605;49.432;8.680;2024-03-02T05:21:41;6.03;;;2.90;;
10416;SDS011;62605;49.432;8.680;2024-03-02T05:24:08;7.03;;;3.60;;
10416;SDS011;62605;49.432;8.680;2024-03-02T05:26:35;5.53;;;3.37;;
10416;SDS011;62605;49.432;8.680;2024-03-02T05:29:03;9.07;;;4.77;;
10416;SDS011;62605;49.432;8.680;2024-03-02T05:31:31;4.70;;;3.17;;
10416;SDS011;62605;49.432;8.680;2024-03-02T05:33:58;6.90;;;3.63;;
10416;SDS011;62605;49.432;8.680;2024-03-02T05:36:26;5.83;;;3.73;;
10416;SDS011;62605;49.432;8.680;2024-03-02T05:38:53;4.90;;;3.30;;
10416;SDS011;62605;49.432;8.680;2024-03-02T05:41:20;6.57;;;4.17;;
10416;SDS011;62605;49.432;8.680;2024-03-02T05:43:47;7.37;;;4.00;;
10416;SDS011;62605;49.432;8.680;2024-03-02T05:46:14;7.73;;;3.07;;
10416;SDS011;62605;49.432;8.680;2024-03-02T05:48:43;6.27;;;3.87;;
10416;SDS011;62605;49.432;8.680;2024-03-02T05:51:10;8.70;;;4.33;;
10416;SDS011;62605;49.432;8.680;2024-03-02T05:53:37;5.63;;;3.67;;
10416;SDS011;62605;49.432;8.680;2024-03-02T05:56:04;5.70;;;3.53;;
10416;SDS011;62605;49.432;8.680;2024-03-02T05:58:32;6.97;;;3.53;;
10416;SDS011;62605;49.432;8.680;2024-03-02T06:01:13;6.57;;;4.20;;
10416;SDS011;62605;49.432;8.680;2024-03-02T06:03:40;5.60;;;3.63;;
10416;SDS011;62605;49.432;8.680;2024-03-02T06:06:09;6.30;;;3.87;;
10416;SDS011;62605;49.432;8.680;2024-03-02T06:08:36;6.07;;;3.80;;
10416;SDS011;62605;49.432;8.680;2024-03-02T06:11:03;5.90;;;4.40;;
10416;SDS011;62605;49.432;8.680;2024-03-02T06:13:30;7.00;;;3.83;;
10416;SDS011;62605;49.432;8.680;2024-03-02T06:15:57;7.57;;;3.90;;
10416;SDS011;62605;49.432;8.680;2024-03-02T06:18:24;5.97;;;3.80;;
10416;SDS011;62605;49.432;8.680;2024-03-02T06:20:52;5.57;;;4.47;;
10416;SDS011;62605;49.432;8.680;2024-03-02T06:23:21;8.13;;;4.00;;
10416;SDS011;62605;49.432;8.680;2024-03-02T06:25:48;5.13;;;3.67;;
10416;SDS011;62605;49.432;8.680;2024-03-02T06:28:15;8.33;;;4.03;;
10416;SDS011;62605;49.432;8.680;2024-03-02T06:30:42;7.10;;;3.67;;
10416;SDS011;62605;49.432;8.680;2024-03-02T06:33:10;5.27;;;3.53;;
10416;SDS011;62605;49.432;8.680;2024-03-02T06:35:37;5.73;;;3.60;;
10416;SDS011;62605;49.432;8.680;2024-03-02T06:38:04;6.97;;;3.60;;
10416;SDS011;62605;49.432;8.680;2024-03-02T06:40:33;6.03;;;3.67;;
10416;SDS011;62605;49.432;8.680;2024-03-02T06:43:02;7.37;;;4.30;;
10416;SDS011;62605;49.432;8.680;2024-03-02T06:45:30;6.83;;;2.70;;
10416;SDS011;62605;49.432;8.680;2024-03-02T06:47:59;9.97;;;4.47;;
10416;SDS011;62605;49.432;8.680;2024-03-02T06:50:26;7.10;;;3.40;;
10416;SDS011;62605;49.432;8.680;2024-03-02T06:52:54;7.57;;;4.00;;
10416;SDS011;62605;49.432;8.680;2024-03-02T06:55:22;6.40;;;3.50;;
10416;SDS011;62605;49.432;8.680;2024-03-02T06:57:51;7.53;;;3.73;;
10416;SDS011;62605;49.432;8.680;2024-03-02T07:00:19;7.37;;;3.53;;
10416;SDS011;62605;49.432;8.680;2024-03-02T07:02:46;4.03;;;3.20;;
10416;SDS011;62605;49.432;8.680;2024-03-02T07:05:13;5.30;;;3.30;;
10416;SDS011;62605;49.432;8.680;2024-03-02T07:07:41;7.00;;;3.97;;
10416;SDS011;62605;49.432;8.680;2024-03-02T07:10:09;5.80;;;3.57;;
10416;SDS011;62605;49.432;8.680;2024-03-02T07:12:36;7.03;;;3.60;;
10416;SDS011;62605;49.432;8.680;2024-03-02T07:15:05;5.40;;;3.70;;
10416;SDS011;62605;49.432;8.680;2024-03-02T07:17:53;5.63;;;3.43;;
10416;SDS011;62605;49.432;8.680;2024-03-02T07:20:20;6.17;;;3.43;;
10416;SDS011;62605;49.432;8.680;2024-03-02T07:22:47;8.00;;;3.93;;
10416;SDS011;62605;49.432;8.680;2024-03-02T07:25:14;8.47;;;4.10;;
10416;SDS011;62605;49.432;8.680;2024-03-02T07:27:41;8.03;;;3.87;;
10416;SDS011;62605;49.432;8.680;2024-03-02T07:30:13;6.50;;;3.67;;
10416;SDS011;62605;49.432;8.680;2024-03-02T07:32:41;5.17;;;3.30;;
10416;SDS011;62605;49.432;8.680;2024-03-02T07:35:11;4.90;;;3.37;;
10416;SDS011;62605;49.432;8.680;2024-03-02T07:37:39;6.37;;;3.13;;
10416;SDS011;62605;49.432;8.680;2024-03-02T07:40:07;6.60;;;3.73;;
10416;SDS011;62605;49.432;8.680;2024-03-02T07:42:37;5.50;;;3.63;;
10416;SDS011;62605;49.432;8.680;2024-03-02T07:45:05;8.00;;;3.40;;
10416;SDS011;62605;49.432;8.680;2024-03-02T07:47:34;4.37;;;3.07;;
10416;SDS011;62605;49.432;8.680;2024-03-02T07:50:02;6.13;;;3.60;;
10416;SDS011;62605;49.432;8.680;2024-03-02T07:52:31;7.07;;;4.30;;
10416;SDS011;62605;49.432;8.680;2024-03-02T07:54:58;10.00;;;4.47;;
10416;SDS011;62605;49.432;8.680;2024-03-02T07:57:25;6.43;;;3.53;;
10416;SDS011;62605;49.432;8.680;2024-03-02T07:59:53;8.27;;;4.17;;
10416;SDS011;62605;49.432;8.680;2024-03-02T08:02:20;4.20;;;3.07;;
10416;SDS011;62605;49.432;8.680;2024-03-02T08:04:49;5.70;;;3.77;;
10416;SDS011;62605;49.432;8.680;2024-03-02T08:07:16;4.03;;;3.23;;
10416;SDS011;62605;49.432;8.680;2024-03-02T08:09:43;7.63;;;3.57;;
10416;SDS011;62605;49.432;8.680;2024-03-02T08:12:11;5.57;;;3.00;;
10416;SDS011;62605;49.432;8.680;2024-03-02T08:14:38;5.70;;;2.40;;
10416;SDS011;62605;49.432;8.680;2024-03-02T08:17:05;8.37;;;3.43;;
10416;SDS011;62605;49.432;8.680;2024-03-02T08:19:35;6.00;;;3.37;;
10416;SDS011;62605;49.432;8.680;2024-03-02T08:22:04;5.27;;;3.23;;
10416;SDS011;62605;49.432;8.680;2024-03-02T08:24:32;5.97;;;3.47;;
10416;SDS011;62605;49.432;8.680;2024-03-02T08:26:59;5.30;;;3.20;;
10416;SDS011;62605;49.432;8.680;2024-03-02T08:29:27;4.23;;;2.83;;
10416;SDS011;62605;49.432;8.680;2024-03-02T08:31:54;3.70;;;2.90;;
10416;SDS011;62605;49.432;8.680;2024-03-02T08:34:21;6.70;;;2.70;;
10416;SDS011;62605;49.432;8.680;2024-03-02T08:36:48;4.50;;;3.17;;
10416;SDS011;62605;49.432;8.680;2024-03-02T08:39:17;4.23;;;2.57;;
10416;SDS011;62605;49.432;8.680;2024-03-02T08:41:46;5.83;;;3.00;;
10416;SDS011;62605;49.432;8.680;2024-03-02T08:44:13;4.53;;;2.93;;
10416;SDS011;62605;49.432;8.680;2024-03-02T08:46:41;4.40;;;2.97;;
10416;SDS011;62605;49.432;8.680;2024-03-02T08:49:10;5.47;;;2.97;;
10416;SDS011;62605;49.432;8.680;2024-03-02T08:51:37;4.43;;;2.63;;
10416;SDS011;62605;49.432;8.680;2024-03-02T08:54:04;4.60;;;2.73;;
10416;SDS011;62605;49.432;8.680;2024-03-02T08:56:33;3.50;;;2.57;;
10416;SDS011;62605;49.432;8.680;2024-03-02T08:59:00;4.10;;;2.57;;
10416;SDS011;62605;49.432;8.680;2024-03-02T09:01:27;2.90;;;2.10;;
10416;SDS011;62605;49.432;8.680;2024-03-02T09:03:54;8.80;;;5.90;;
10416;SDS011;62605;49.432;8.680;2024-03-02T09:06:22;15.40;;;9.37;;
10416;SDS011;62605;49.432;8.680;2024-03-02T09:08:49;9.93;;;7.10;;
10416;SDS011;62605;49.432;8.680;2024-03-02T09:11:17;11.73;;;6.73;;
10416;SDS011;62605;49.432;8.680;2024-03-02T09:13:46;9.40;;;5.70;;
10416;SDS011;62605;49.432;8.680;2024-03-02T09:16:13;6.27;;;4.40;;
10416;SDS011;62605;49.432;8.680;2024-03-02T09:18:40;5.17;;;3.60;;
10416;SDS011;62605;49.432;8.680;2024-03-02T09:21:07;7.37;;;4.10;;
10416;SDS011;62605;49.432;8.680;2024-03-02T09:23:35;3.80;;;2.63;;
10416;SDS011;62605;49.432;8.680;2024-03-02T09:26:03;3.93;;;2.83;;
10416;SDS011;62605;49.432;8.680;2024-03-02T09:28:30;3.70;;;2.67;;
10416;SDS011;62605;49.432;8.680;2024-03-02T09:30:58;4.93;;;2.60;;
10416;SDS011;62605;49.432;8.680;2024-03-02T09:33:27;2.57;;;2.10;;
10416;SDS011;62605;49.432;8.680;2024-03-02T09:35:54;2.67;;;1.90;;
10416;SDS011;62605;49.432;8.680;2024-03-02T09:38:21;3.13;;;2.13;;
10416;SDS011;62605;49.432;8.680;2024-03-02T09:40:49;3.40;;;2.50;;
10416;SDS011;62605;49.432;8.680;2024-03-02T09:43:16;2.30;;;1.97;;
10416;SDS011;62605;49.432;8.680;2024-03-02T09:45:43;3.43;;;2.17;;
10416;SDS011;62605;49.432;8.680;2024-03-02T09:48:13;4.50;;;2.10;;
10416;SDS011;62605;49.432;8.680;2024-03-02T09:50:43;2.27;;;1.87;;
10416;SDS011;62605;49.432;8.680;2024-03-02T09:53:11;4.40;;;3.10;;
10416;SDS011;62605;49.432;8.680;2024-03-02T09:55:38;6.07;;;2.97;;
10416;SDS011;62605;49.432;8.680;2024-03-02T09:58:09;5.17;;;3.30;;
10416;SDS011;62605;49.432;8.680;2024-03-02T10:00:36;4.73;;;3.30;;
10416;SDS011;62605;49.432;8.680;2024-03-02T10:03:03;5.10;;;3.60;;
10416;SDS011;62605;49.432;8.680;2024-03-02T10:05:32;5.27;;;3.13;;
10416;SDS011;62605;49.432;8.680;2024-03-02T10:07:59;3.30;;;2.50;;
10416;SDS011;62605;49.432;8.680;2024-03-02T10:10:34;2.93;;;2.00;;
10416;SDS011;62605;49.432;8.680;2024-03-02T10:13:05;2.50;;;1.87;;
10416;SDS011;62605;49.432;8.680;2024-03-02T10:15:34;1.57;;;1.47;;
10416;SDS011;62605;49.432;8.680;2024-03-02T10:18:02;1.53;;;1.33;;
10416;SDS011;62605;49.432;8.680;2024-03-02T10:20:30;1.80;;;1.57;;
10416;SDS011;62605;49.432;8.680;2024-03-02T10:23:10;2.50;;;1.40;;
10416;SDS011;62605;49.432;8.680;2024-03-02T10:25:38;2.40;;;1.67;;
10416;SDS011;62605;49.432;8.680;2024-03-02T10:28:06;2.97;;;1.90;;
10416;SDS011;62605;49.432;8.680;2024-03-02T10:30:33;3.60;;;1.77;;
10416;SDS011;62605;49.432;8.680;2024-03-02T10:33:00;2.60;;;1.70;;
10416;SDS011;62605;49.432;8.680;2024-03-02T10:35:35;2.00;;;1.53;;
10416;SDS011;62605;49.432;8.680;2024-03-02T10:38:04;1.87;;;1.40;;
10416;SDS011;62605;49.432;8.680;2024-03-02T10:40:33;4.27;;;1.27;;
10416;SDS011;62605;49.432;8.680;2024-03-02T10:43:01;1.63;;;1.40;;
10416;SDS011;62605;49.432;8.680;2024-03-02T10:45:30;2.13;;;1.67;;
10416;SDS011;62605;49.432;8.680;2024-03-02T10:47:58;3.03;;;1.60;;
10416;SDS011;62605;49.432;8.680;2024-03-02T10:50:26;1.17;;;1.07;;
10416;SDS011;62605;49.432;8.680;2024-03-02T10:52:54;1.40;;;1.30;;
10416;SDS011;62605;49.432;8.680;2024-03-02T10:55:21;2.50;;;1.47;;
10416;SDS011;62605;49.432;8.680;2024-03-02T10:57:51;1.97;;;1.23;;
10416;SDS011;62605;49.432;8.680;2024-03-02T11:00:20;1.50;;;1.40;;
10416;SDS011;62605;49.432;8.680;2024-03-02T11:02:51;2.63;;;1.63;;
10416;SDS011;62605;49.432;8.680;2024-03-02T11:05:26;2.67;;;1.30;;
10416;SDS011;62605;49.432;8.680;2024-03-02T11:07:57;1.57;;;1.10;;
10416;SDS011;62605;49.432;8.680;2024-03-02T11:10:29;2.03;;;1.07;;
10416;SDS011;62605;49.432;8.680;2024-03-02T11:13:05;0.90;;;0.90;;
10416;SDS011;62605;49.432;8.680;2024-03-02T11:15:34;1.50;;;1.20;;
10416;SDS011;62605;49.432;8.680;2024-03-02T11:18:03;1.23;;;1.13;;
10416;SDS011;62605;49.432;8.680;2024-03-02T11:20:34;1.13;;;1.02;;
10416;SDS011;62605;49.432;8.680;2024-03-02T11:23:04;2.60;;;1.30;;
10416;SDS011;62605;49.432;8.680;2024-03-02T11:25:32;1.20;;;1.10;;
10416;SDS011;62605;49.432;8.680;2024-03-02T11:28:00;1.23;;;1.13;;
10416;SDS011;62605;49.432;8.680;2024-03-02T11:30:48;1.40;;;1.30;;
10416;SDS011;62605;49.432;8.680;2024-03-02T11:33:18;1.73;;;1.00;;
10416;SDS011;62605;49.432;8.680;2024-03-02T11:35:56;1.27;;;1.05;;
10416;SDS011;62605;49.432;8.680;2024-03-02T11:38:30;2.08;;;1.27;;
10416;SDS011;62605;49.432;8.680;2024-03-02T11:40:59;1.95;;;1.17;;
10416;SDS011;62605;49.432;8.680;2024-03-02T11:43:29;2.78;;;1.10;;
10416;SDS011;62605;49.432;8.680;2024-03-02T11:45:58;1.48;;;1.20;;
10416;SDS011;62605;49.432;8.680;2024-03-02T11:48:29;1.58;;;1.20;;
10416;SDS011;62605;49.432;8.680;2024-03-02T11:50:57;1.70;;;1.20;;
10416;SDS011;62605;49.432;8.680;2024-03-02T11:53:26;2.13;;;1.27;;
10416;SDS011;62605;49.432;8.680;2024-03-02T11:55:57;1.10;;;1.10;;
10416;SDS011;62605;49.432;8.680;2024-03-02T11:58:29;2.25;;;1.30;;
10416;SDS011;62605;49.432;8.680;2024-03-02T12:00:57;3.85;;;2.85;;
10416;SDS011;62605;49.432;8.680;2024-03-02T12:03:25;2.83;;;1.35;;
10416;SDS011;62605;49.432;8.680;2024-03-02T12:05:53;2.85;;;1.92;;
10416;SDS011;62605;49.432;8.680;2024-03-02T12:08:20;0.95;;;0.95;;
10416;SDS011;62605;49.432;8.680;2024-03-02T12:10:57;1.58;;;1.05;;
10416;SDS011;62605;49.432;8.680;2024-03-02T12:13:25;1.15;;;0.90;;
10416;SDS011;62605;49.432;8.680;2024-03-02T12:15:54;1.08;;;0.90;;
10416;SDS011;62605;49.432;8.680;2024-03-02T12:18:22;1.40;;;1.15;;
10416;SDS011;62605;49.432;8.680;2024-03-02T12:20:50;0.63;;;0.63;;
10416;SDS011;62605;49.432;8.680;2024-03-02T12:23:21;1.50;;;1.15;;
10416;SDS011;62605;49.432;8.680;2024-03-02T12:25:48;1.23;;;0.85;;
10416;SDS011;62605;49.432;8.680;2024-03-02T12:28:32;0.65;;;0.65;;
10416;SDS011;62605;49.432;8.680;2024-03-02T12:31:01;1.20;;;0.88;;
10416;SDS011;62605;49.432;8.680;2024-03-02T12:33:29;1.00;;;0.80;;
10416;SDS011;62605;49.432;8.680;2024-03-02T12:35:58;1.50;;;0.90;;
10416;SDS011;62605;49.432;8.680;2024-03-02T12:38:26;1.10;;;1.00;;
10416;SDS011;62605;49.432;8.680;2024-03-02T12:40:54;1.63;;;1.10;;
10416;SDS011;62605;49.432;8.680;2024-03-02T12:43:22;1.23;;;1.13;;
10416;SDS011;62605;49.432;8.680;2024-03-02T12:45:49;1.85;;;0.90;;
10416;SDS011;62605;49.432;8.680;2024-03-02T12:48:18;2.97;;;1.10;;
10416;SDS011;62605;49.432;8.680;2024-03-02T12:50:53;1.08;;;0.98;;
10416;SDS011;62605;49.432;8.680;2024-03-02T12:53:21;4.40;;;1.10;;
10416;SDS011;62605;49.432;8.680;2024-03-02T12:55:49;1.10;;;1.00;;
10416;SDS011;62605;49.432;8.680;2024-03-02T12:58:18;1.63;;;1.17;;
10416;SDS011;62605;49.432;8.680;2024-03-02T13:00:46;1.00;;;1.00;;
10416;SDS011;62605;49.432;8.680;2024-03-02T13:03:14;1.35;;;1.13;;
10416;SDS011;62605;49.432;8.680;2024-03-02T13:05:48;0.88;;;0.88;;
10416;SDS011;62605;49.432;8.680;2024-03-02T13:08:16;1.55;;;1.00;;
10416;SDS011;62605;49.432;8.680;2024-03-02T13:10:43;1.40;;;1.10;;
10416;SDS011;62605;49.432;8.680;2024-03-02T13:13:12;0.88;;;0.88;;
10416;SDS011;62605;49.432;8.680;2024-03-02T13:15:40;1.00;;;0.95;;
10416;SDS011;62605;49.432;8.680;2024-03-02T13:18:08;1.65;;;1.30;;
10416;SDS011;62605;49.432;8.680;2024-03-02T13:20:37;1.58;;;0.80;;
10416;SDS011;62605;49.432;8.680;2024-03-02T13:23:05;0.80;;;0.80;;
10416;SDS011;62605;49.432;8.680;2024-03-02T13:25:32;0.95;;;0.95;;
10416;SDS011;62605;49.432;8.680;2024-03-02T13:27:59;1.48;;;1.05;;
10416;SDS011;62605;49.432;8.680;2024-03-02T13:30:27;4.15;;;1.13;;
10416;SDS011;62605;49.432;8.680;2024-03-02T13:32:54;0.68;;;0.68;;
10416;SDS011;62605;49.432;8.680;2024-03-02T13:35:21;0.80;;;0.80;;
10416;SDS011;62605;49.432;8.680;2024-03-02T13:37:50;1.20;;;0.80;;
10416;SDS011;62605;49.432;8.680;2024-03-02T13:40:17;1.40;;;0.88;;
10416;SDS011;62605;49.432;8.680;2024-03-02T13:42:45;0.70;;;0.70;;
10416;SDS011;62605;49.432;8.680;2024-03-02T13:45:12;0.80;;;0.80;;
10416;SDS011;62605;49.432;8.680;2024-03-02T13:47:40;1.13;;;1.02;;
10416;SDS011;62605;49.432;8.680;2024-03-02T13:50:08;1.10;;;1.00;;
10416;SDS011;62605;49.432;8.680;2024-03-02T13:52:35;2.13;;;1.08;;
10416;SDS011;62605;49.432;8.680;2024-03-02T13:55:04;0.95;;;0.70;;
10416;SDS011;62605;49.432;8.680;2024-03-02T13:57:32;1.05;;;0.88;;
10416;SDS011;62605;49.432;8.680;2024-03-02T13:59:59;1.33;;;0.95;;
10416;SDS011;62605;49.432;8.680;2024-03-02T14:02:28;0.77;;;0.77;;
10416;SDS011;62605;49.432;8.680;2024-03-02T14:04:55;0.90;;;0.70;;
10416;SDS011;62605;49.432;8.680;2024-03-02T14:07:23;0.82;;;0.70;;
10416;SDS011;62605;49.432;8.680;2024-03-02T14:09:50;1.27;;;0.75;;
10416;SDS011;62605;49.432;8.680;2024-03-02T14:12:19;0.85;;;0.70;;
10416;SDS011;62605;49.432;8.680;2024-03-02T14:14:47;0.70;;;0.70;;
10416;SDS011;62605;49.432;8.680;2024-03-02T14:17:16;0.88;;;0.88;;
10416;SDS011;62605;49.432;8.680;2024-03-02T14:19:43;0.50;;;0.50;;
10416;SDS011;62605;49.432;8.680;2024-03-02T14:22:10;0.70;;;0.70;;
10416;SDS011;62605;49.432;8.680;2024-03-02T14:24:42;0.98;;;0.60;;
10416;SDS011;62605;49.432;8.680;2024-03-02T14:27:09;0.70;;;0.60;;
10416;SDS011;62605;49.432;8.680;2024-03-02T14:29:38;0.50;;;0.50;;
10416;SDS011;62605;49.432;8.680;2024-03-02T14:32:05;0.60;;;0.60;;
10416;SDS011;62605;49.432;8.680;2024-03-02T14:34:33;0.50;;;0.50;;
10416;SDS011;62605;49.432;8.680;2024-03-02T14:37:00;0.60;;;0.55;;
10416;SDS011;62605;49.432;8.680;2024-03-02T14:39:28;0.77;;;0.73;;
10416;SDS011;62605;49.432;8.680;2024-03-02T14:41:57;0.80;;;0.75;;
10416;SDS011;62605;49.432;8.680;2024-03-02T14:44:24;0.60;;;0.60;;
10416;SDS011;62605;49.432;8.680;2024-03-02T14:46:53;0.52;;;0.52;;
10416;SDS011;62605;49.432;8.680;2024-03-02T14:49:20;0.70;;;0.70;;
10416;SDS011;62605;49.432;8.680;2024-03-02T14:51:47;0.60;;;0.60;;
10416;SDS011;62605;49.432;8.680;2024-03-02T14:54:15;0.80;;;0.80;;
10416;SDS011;62605;49.432;8.680;2024-03-02T14:56:42;1.13;;;0.60;;
10416;SDS011;62605;49.432;8.680;2024-03-02T14:59:10;0.65;;;0.65;;
10416;SDS011;62605;49.432;8.680;2024-03-02T15:01:37;0.70;;;0.70;;